sensor_id;sensor_type;location;lat;lon;timestamp;P1;durP1;ratioP1;P2;durP2;ratioP2
63379;SDS011;53160;55.014;73.156;2023-04-24T00:01:23;18.00;;;17.80;;
63379;SDS011;53160;55.014;73.156;2023-04-24T00:04:07;18.60;;;17.60;;
63379;SDS011;53160;55.014;73.156;2023-04-24T00:06:54;16.40;;;15.60;;
63379;SDS011;53160;55.014;73.156;2023-04-24T00:09:22;16.40;;;16.00;;
63379;SDS011;53160;55.014;73.156;2023-04-24T00:12:17;13.00;;;12.20;;
63379;SDS011;53160;55.014;73.156;2023-04-24T00:14:53;17.25;;;16.75;;
63379;SDS011;53160;55.014;73.156;2023-04-24T00:17:40;27.40;;;25.20;;
63379;SDS011;53160;55.014;73.156;2023-04-24T00:20:06;28.40;;;26.80;;
63379;SDS011;53160;55.014;73.156;2023-04-24T00:22:32;29.80;;;27.00;;
63379;SDS011;53160;55.014;73.156;2023-04-24T00:25:17;26.20;;;25.00;;
63379;SDS011;53160;55.014;73.156;2023-04-24T00:27:48;23.40;;;21.80;;
63379;SDS011;53160;55.014;73.156;2023-04-24T00:30:20;22.20;;;18.40;;
63379;SDS011;53160;55.014;73.156;2023-04-24T00:33:05;23.80;;;23.00;;
63379;SDS011;53160;55.014;73.156;2023-04-24T00:35:54;21.20;;;20.20;;
63379;SDS011;53160;55.014;73.156;2023-04-24T00:38:39;20.40;;;20.40;;
63379;SDS011;53160;55.014;73.156;2023-04-24T00:41:05;21.40;;;20.40;;
63379;SDS011;53160;55.014;73.156;2023-04-24T00:43:31;21.00;;;19.80;;
63379;SDS011;53160;55.014;73.156;2023-04-24T00:45:57;23.00;;;21.75;;
63379;SDS011;53160;55.014;73.156;2023-04-24T00:48:53;25.20;;;23.40;;
63379;SDS011;53160;55.014;73.156;2023-04-24T00:51:39;21.40;;;17.00;;
63379;SDS011;53160;55.014;73.156;2023-04-24T00:54:06;19.00;;;16.00;;
63379;SDS011;53160;55.014;73.156;2023-04-24T00:56:32;11.60;;;11.60;;
63379;SDS011;53160;55.014;73.156;2023-04-24T00:59:16;10.60;;;10.20;;
63379;SDS011;53160;55.014;73.156;2023-04-24T01:01:43;13.80;;;11.80;;
63379;SDS011;53160;55.014;73.156;2023-04-24T01:06:55;17.80;;;15.60;;
63379;SDS011;53160;55.014;73.156;2023-04-24T01:09:24;11.60;;;10.00;;
63379;SDS011;53160;55.014;73.156;2023-04-24T01:12:19;11.00;;;11.00;;
63379;SDS011;53160;55.014;73.156;2023-04-24T01:15:03;12.00;;;11.40;;
63379;SDS011;53160;55.014;73.156;2023-04-24T01:17:48;14.60;;;14.00;;
63379;SDS011;53160;55.014;73.156;2023-04-24T01:20:14;11.20;;;11.20;;
63379;SDS011;53160;55.014;73.156;2023-04-24T01:28:28;15.00;;;13.80;;
63379;SDS011;53160;55.014;73.156;2023-04-24T01:30:59;10.80;;;10.20;;
63379;SDS011;53160;55.014;73.156;2023-04-24T01:33:25;11.20;;;11.20;;
63379;SDS011;53160;55.014;73.156;2023-04-24T01:38:37;15.40;;;12.00;;
63379;SDS011;53160;55.014;73.156;2023-04-24T01:41:21;14.00;;;13.00;;
63379;SDS011;53160;55.014;73.156;2023-04-24T01:43:50;14.60;;;13.60;;
63379;SDS011;53160;55.014;73.156;2023-04-24T01:46:21;16.80;;;14.20;;
63379;SDS011;53160;55.014;73.156;2023-04-24T01:48:47;15.00;;;12.80;;
63379;SDS011;53160;55.014;73.156;2023-04-24T01:51:13;16.40;;;16.00;;
63379;SDS011;53160;55.014;73.156;2023-04-24T01:53:39;11.40;;;10.80;;
63379;SDS011;53160;55.014;73.156;2023-04-24T01:56:05;15.00;;;13.80;;
63379;SDS011;53160;55.014;73.156;2023-04-24T01:58:32;13.80;;;12.80;;
63379;SDS011;53160;55.014;73.156;2023-04-24T02:01:25;16.20;;;14.60;;
63379;SDS011;53160;55.014;73.156;2023-04-24T02:03:56;11.20;;;10.00;;
63379;SDS011;53160;55.014;73.156;2023-04-24T02:06:22;16.00;;;15.20;;
63379;SDS011;53160;55.014;73.156;2023-04-24T02:09:17;13.40;;;13.00;;
63379;SDS011;53160;55.014;73.156;2023-04-24T02:12:02;14.20;;;14.00;;
63379;SDS011;53160;55.014;73.156;2023-04-24T02:14:28;14.00;;;13.60;;
63379;SDS011;53160;55.014;73.156;2023-04-24T02:16:54;12.40;;;11.60;;
63379;SDS011;53160;55.014;73.156;2023-04-24T02:19:26;19.60;;;17.00;;
63379;SDS011;53160;55.014;73.156;2023-04-24T02:24:55;16.80;;;13.20;;
63379;SDS011;53160;55.014;73.156;2023-04-24T02:27:21;12.40;;;12.00;;
63379;SDS011;53160;55.014;73.156;2023-04-24T02:30:16;13.80;;;13.20;;
63379;SDS011;53160;55.014;73.156;2023-04-24T02:32:51;13.80;;;13.00;;
63379;SDS011;53160;55.014;73.156;2023-04-24T02:35:17;14.20;;;12.80;;
63379;SDS011;53160;55.014;73.156;2023-04-24T02:37:43;16.20;;;15.80;;
63379;SDS011;53160;55.014;73.156;2023-04-24T02:40:11;13.60;;;12.40;;
63379;SDS011;53160;55.014;73.156;2023-04-24T02:42:37;12.40;;;12.00;;
63379;SDS011;53160;55.014;73.156;2023-04-24T02:45:03;17.00;;;15.40;;
63379;SDS011;53160;55.014;73.156;2023-04-24T02:47:29;13.00;;;12.40;;
63379;SDS011;53160;55.014;73.156;2023-04-24T02:49:55;12.40;;;11.60;;
63379;SDS011;53160;55.014;73.156;2023-04-24T02:52:21;15.40;;;14.60;;
63379;SDS011;53160;55.014;73.156;2023-04-24T02:54:47;14.20;;;12.40;;
63379;SDS011;53160;55.014;73.156;2023-04-24T03:00:35;13.80;;;13.40;;
63379;SDS011;53160;55.014;73.156;2023-04-24T03:03:19;18.00;;;15.00;;
63379;SDS011;53160;55.014;73.156;2023-04-24T03:05:45;16.00;;;14.60;;
63379;SDS011;53160;55.014;73.156;2023-04-24T03:08:30;19.80;;;17.20;;
63379;SDS011;53160;55.014;73.156;2023-04-24T03:11:16;13.60;;;12.60;;
63379;SDS011;53160;55.014;73.156;2023-04-24T03:13:42;16.25;;;14.25;;
63379;SDS011;53160;55.014;73.156;2023-04-24T03:16:08;14.00;;;13.50;;
63379;SDS011;53160;55.014;73.156;2023-04-24T03:18:39;19.40;;;17.60;;
63379;SDS011;53160;55.014;73.156;2023-04-24T03:21:33;17.40;;;15.80;;
63379;SDS011;53160;55.014;73.156;2023-04-24T03:24:01;17.20;;;16.20;;
63379;SDS011;53160;55.014;73.156;2023-04-24T03:26:28;19.40;;;17.40;;
63379;SDS011;53160;55.014;73.156;2023-04-24T03:29:11;19.60;;;17.00;;
63379;SDS011;53160;55.014;73.156;2023-04-24T03:31:38;20.80;;;17.60;;
63379;SDS011;53160;55.014;73.156;2023-04-24T03:34:22;37.20;;;30.00;;
63379;SDS011;53160;55.014;73.156;2023-04-24T03:36:53;13.60;;;12.00;;
63379;SDS011;53160;55.014;73.156;2023-04-24T03:42:22;15.00;;;11.80;;
63379;SDS011;53160;55.014;73.156;2023-04-24T03:44:52;15.40;;;14.40;;
63379;SDS011;53160;55.014;73.156;2023-04-24T03:47:25;19.60;;;17.20;;
63379;SDS011;53160;55.014;73.156;2023-04-24T03:49:53;18.80;;;16.00;;
63379;SDS011;53160;55.014;73.156;2023-04-24T03:52:21;16.00;;;16.00;;
63379;SDS011;53160;55.014;73.156;2023-04-24T03:54:57;17.00;;;16.60;;
63379;SDS011;53160;55.014;73.156;2023-04-24T03:57:24;17.00;;;16.20;;
63379;SDS011;53160;55.014;73.156;2023-04-24T04:00:06;19.60;;;18.00;;
63379;SDS011;53160;55.014;73.156;2023-04-24T04:05:25;14.00;;;13.00;;
63379;SDS011;53160;55.014;73.156;2023-04-24T04:07:55;14.20;;;13.20;;
63379;SDS011;53160;55.014;73.156;2023-04-24T04:10:22;13.00;;;12.60;;
63379;SDS011;53160;55.014;73.156;2023-04-24T04:12:48;16.80;;;14.80;;
63379;SDS011;53160;55.014;73.156;2023-04-24T04:15:14;18.20;;;16.00;;
63379;SDS011;53160;55.014;73.156;2023-04-24T04:17:40;16.60;;;16.60;;
63379;SDS011;53160;55.014;73.156;2023-04-24T04:20:53;13.00;;;12.80;;
63379;SDS011;53160;55.014;73.156;2023-04-24T04:23:19;18.40;;;16.00;;
63379;SDS011;53160;55.014;73.156;2023-04-24T04:26:08;30.00;;;27.80;;
63379;SDS011;53160;55.014;73.156;2023-04-24T04:29:01;9.00;;;8.80;;
63379;SDS011;53160;55.014;73.156;2023-04-24T04:31:29;12.40;;;12.00;;
63379;SDS011;53160;55.014;73.156;2023-04-24T04:34:14;15.00;;;11.40;;
63379;SDS011;53160;55.014;73.156;2023-04-24T04:36:41;13.00;;;12.20;;
63379;SDS011;53160;55.014;73.156;2023-04-24T04:39:26;17.00;;;16.60;;
63379;SDS011;53160;55.014;73.156;2023-04-24T04:42:12;17.20;;;15.20;;
63379;SDS011;53160;55.014;73.156;2023-04-24T04:44:41;51.00;;;43.00;;
63379;SDS011;53160;55.014;73.156;2023-04-24T04:49:59;9.20;;;8.00;;
63379;SDS011;53160;55.014;73.156;2023-04-24T04:52:32;9.80;;;8.80;;
63379;SDS011;53160;55.014;73.156;2023-04-24T04:55:08;14.00;;;11.40;;
63379;SDS011;53160;55.014;73.156;2023-04-24T05:01:04;8.40;;;8.40;;
63379;SDS011;53160;55.014;73.156;2023-04-24T05:03:44;10.60;;;9.40;;
63379;SDS011;53160;55.014;73.156;2023-04-24T05:06:13;14.20;;;12.40;;
63379;SDS011;53160;55.014;73.156;2023-04-24T05:08:58;12.20;;;11.00;;
63379;SDS011;53160;55.014;73.156;2023-04-24T05:11:36;12.00;;;12.00;;
63379;SDS011;53160;55.014;73.156;2023-04-24T05:14:02;13.40;;;13.20;;
63379;SDS011;53160;55.014;73.156;2023-04-24T05:16:34;11.00;;;10.00;;
63379;SDS011;53160;55.014;73.156;2023-04-24T05:19:20;12.60;;;11.60;;
63379;SDS011;53160;55.014;73.156;2023-04-24T05:21:57;12.40;;;10.60;;
63379;SDS011;53160;55.014;73.156;2023-04-24T05:24:27;10.50;;;9.00;;
63379;SDS011;53160;55.014;73.156;2023-04-24T05:27:11;11.25;;;10.00;;
63379;SDS011;53160;55.014;73.156;2023-04-24T05:29:39;11.75;;;10.25;;
63379;SDS011;53160;55.014;73.156;2023-04-24T05:32:12;16.60;;;16.00;;
63379;SDS011;53160;55.014;73.156;2023-04-24T05:34:39;11.00;;;11.00;;
63379;SDS011;53160;55.014;73.156;2023-04-24T05:37:05;9.25;;;9.25;;
63379;SDS011;53160;55.014;73.156;2023-04-24T05:39:41;10.50;;;9.00;;
63379;SDS011;53160;55.014;73.156;2023-04-24T05:42:08;11.75;;;11.00;;
63379;SDS011;53160;55.014;73.156;2023-04-24T05:44:34;9.67;;;9.67;;
63379;SDS011;53160;55.014;73.156;2023-04-24T05:49:59;8.25;;;7.75;;
63379;SDS011;53160;55.014;73.156;2023-04-24T05:52:39;9.00;;;8.25;;
63379;SDS011;53160;55.014;73.156;2023-04-24T05:55:22;8.75;;;8.75;;
63379;SDS011;53160;55.014;73.156;2023-04-24T06:00:35;9.00;;;8.50;;
63379;SDS011;53160;55.014;73.156;2023-04-24T06:05:55;9.75;;;8.00;;
63379;SDS011;53160;55.014;73.156;2023-04-24T06:08:27;9.00;;;9.00;;
63379;SDS011;53160;55.014;73.156;2023-04-24T06:14:01;6.00;;;6.00;;
63379;SDS011;53160;55.014;73.156;2023-04-24T06:16:40;8.75;;;8.00;;
63379;SDS011;53160;55.014;73.156;2023-04-24T06:19:28;6.50;;;6.00;;
63379;SDS011;53160;55.014;73.156;2023-04-24T06:22:00;6.00;;;6.00;;
63379;SDS011;53160;55.014;73.156;2023-04-24T06:24:29;7.75;;;7.00;;
63379;SDS011;53160;55.014;73.156;2023-04-24T06:27:07;19.20;;;18.60;;
63379;SDS011;53160;55.014;73.156;2023-04-24T06:29:33;9.25;;;8.75;;
63379;SDS011;53160;55.014;73.156;2023-04-24T06:31:59;7.00;;;6.25;;
63379;SDS011;53160;55.014;73.156;2023-04-24T06:37:11;5.50;;;5.50;;
63379;SDS011;53160;55.014;73.156;2023-04-24T06:40:00;15.00;;;14.80;;
63379;SDS011;53160;55.014;73.156;2023-04-24T06:45:29;7.00;;;6.75;;
63379;SDS011;53160;55.014;73.156;2023-04-24T06:47:55;14.50;;;14.00;;
63379;SDS011;53160;55.014;73.156;2023-04-24T06:50:22;8.00;;;7.00;;
63379;SDS011;53160;55.014;73.156;2023-04-24T06:52:47;7.00;;;7.00;;
63379;SDS011;53160;55.014;73.156;2023-04-24T06:55:14;10.25;;;9.75;;
63379;SDS011;53160;55.014;73.156;2023-04-24T06:57:42;9.00;;;9.00;;
63379;SDS011;53160;55.014;73.156;2023-04-24T07:00:08;7.00;;;7.00;;
63379;SDS011;53160;55.014;73.156;2023-04-24T07:02:53;6.00;;;6.00;;
63379;SDS011;53160;55.014;73.156;2023-04-24T07:05:20;12.00;;;7.75;;
63379;SDS011;53160;55.014;73.156;2023-04-24T07:07:51;6.25;;;6.25;;
63379;SDS011;53160;55.014;73.156;2023-04-24T07:10:23;4.00;;;4.00;;
63379;SDS011;53160;55.014;73.156;2023-04-24T07:13:08;5.00;;;5.00;;
63379;SDS011;53160;55.014;73.156;2023-04-24T07:15:53;7.25;;;6.50;;
63379;SDS011;53160;55.014;73.156;2023-04-24T07:18:20;7.25;;;7.25;;
63379;SDS011;53160;55.014;73.156;2023-04-24T07:20:46;6.00;;;6.00;;
63379;SDS011;53160;55.014;73.156;2023-04-24T07:23:12;53.20;;;48.60;;
63379;SDS011;53160;55.014;73.156;2023-04-24T07:25:39;21.20;;;20.60;;
63379;SDS011;53160;55.014;73.156;2023-04-24T07:28:06;9.00;;;8.00;;
63379;SDS011;53160;55.014;73.156;2023-04-24T07:30:32;7.33;;;6.33;;
63379;SDS011;53160;55.014;73.156;2023-04-24T07:35:43;7.50;;;7.50;;
63379;SDS011;53160;55.014;73.156;2023-04-24T07:38:12;10.50;;;9.50;;
63379;SDS011;53160;55.014;73.156;2023-04-24T07:43:22;7.50;;;7.00;;
63379;SDS011;53160;55.014;73.156;2023-04-24T07:46:07;7.75;;;7.00;;
63379;SDS011;53160;55.014;73.156;2023-04-24T07:48:35;6.75;;;6.75;;
63379;SDS011;53160;55.014;73.156;2023-04-24T07:51:01;9.00;;;8.25;;
63379;SDS011;53160;55.014;73.156;2023-04-24T07:53:45;9.50;;;9.25;;
63379;SDS011;53160;55.014;73.156;2023-04-24T07:56:11;7.50;;;7.50;;
63379;SDS011;53160;55.014;73.156;2023-04-24T07:58:37;8.25;;;8.25;;
63379;SDS011;53160;55.014;73.156;2023-04-24T08:01:22;7.00;;;6.75;;
63379;SDS011;53160;55.014;73.156;2023-04-24T08:03:47;9.25;;;9.25;;
63379;SDS011;53160;55.014;73.156;2023-04-24T08:06:14;7.00;;;7.00;;
63379;SDS011;53160;55.014;73.156;2023-04-24T08:08:59;7.00;;;6.25;;
63379;SDS011;53160;55.014;73.156;2023-04-24T08:14:10;10.00;;;9.25;;
63379;SDS011;53160;55.014;73.156;2023-04-24T08:19:29;8.50;;;8.50;;
63379;SDS011;53160;55.014;73.156;2023-04-24T08:21:55;6.00;;;6.00;;
63379;SDS011;53160;55.014;73.156;2023-04-24T08:24:24;6.67;;;6.67;;
63379;SDS011;53160;55.014;73.156;2023-04-24T08:26:54;7.75;;;7.75;;
63379;SDS011;53160;55.014;73.156;2023-04-24T08:29:22;6.50;;;6.00;;
63379;SDS011;53160;55.014;73.156;2023-04-24T08:32:15;11.40;;;11.40;;
63379;SDS011;53160;55.014;73.156;2023-04-24T08:34:41;6.00;;;6.00;;
63379;SDS011;53160;55.014;73.156;2023-04-24T08:37:07;7.75;;;7.50;;
63379;SDS011;53160;55.014;73.156;2023-04-24T08:39:43;6.25;;;6.00;;
63379;SDS011;53160;55.014;73.156;2023-04-24T08:42:13;8.00;;;8.00;;
63379;SDS011;53160;55.014;73.156;2023-04-24T08:44:40;7.75;;;7.75;;
63379;SDS011;53160;55.014;73.156;2023-04-24T08:47:07;6.50;;;6.50;;
63379;SDS011;53160;55.014;73.156;2023-04-24T08:55:20;22.00;;;21.20;;
63379;SDS011;53160;55.014;73.156;2023-04-24T08:58:05;8.00;;;8.00;;
63379;SDS011;53160;55.014;73.156;2023-04-24T09:00:49;5.25;;;4.75;;
63379;SDS011;53160;55.014;73.156;2023-04-24T09:03:15;8.40;;;7.60;;
63379;SDS011;53160;55.014;73.156;2023-04-24T09:06:00;4.50;;;3.75;;
63379;SDS011;53160;55.014;73.156;2023-04-24T09:08:27;7.00;;;6.00;;
63379;SDS011;53160;55.014;73.156;2023-04-24T09:10:56;4.25;;;4.25;;
63379;SDS011;53160;55.014;73.156;2023-04-24T09:13:31;4.00;;;3.75;;
63379;SDS011;53160;55.014;73.156;2023-04-24T09:15:58;5.25;;;4.25;;
63379;SDS011;53160;55.014;73.156;2023-04-24T09:18:44;2.75;;;2.25;;
63379;SDS011;53160;55.014;73.156;2023-04-24T09:21:10;4.00;;;4.00;;
63379;SDS011;53160;55.014;73.156;2023-04-24T09:26:21;5.50;;;5.00;;
63379;SDS011;53160;55.014;73.156;2023-04-24T09:28:48;7.25;;;5.25;;
63379;SDS011;53160;55.014;73.156;2023-04-24T09:31:15;6.00;;;5.75;;
63379;SDS011;53160;55.014;73.156;2023-04-24T09:33:53;3.50;;;3.50;;
63379;SDS011;53160;55.014;73.156;2023-04-24T09:36:29;4.00;;;3.00;;
63379;SDS011;53160;55.014;73.156;2023-04-24T09:39:05;3.25;;;2.25;;
63379;SDS011;53160;55.014;73.156;2023-04-24T09:41:57;2.75;;;2.75;;
63379;SDS011;53160;55.014;73.156;2023-04-24T09:44:24;3.00;;;3.00;;
63379;SDS011;53160;55.014;73.156;2023-04-24T09:46:59;4.50;;;4.00;;
63379;SDS011;53160;55.014;73.156;2023-04-24T09:52:10;3.00;;;3.00;;
63379;SDS011;53160;55.014;73.156;2023-04-24T09:54:55;3.00;;;3.00;;
63379;SDS011;53160;55.014;73.156;2023-04-24T09:57:21;4.00;;;2.75;;
63379;SDS011;53160;55.014;73.156;2023-04-24T09:59:47;2.50;;;2.50;;
63379;SDS011;53160;55.014;73.156;2023-04-24T10:02:17;1.00;;;1.00;;
63379;SDS011;53160;55.014;73.156;2023-04-24T10:04:53;1.00;;;1.00;;
63379;SDS011;53160;55.014;73.156;2023-04-24T10:07:19;2.00;;;2.00;;
63379;SDS011;53160;55.014;73.156;2023-04-24T10:09:45;2.75;;;2.25;;
63379;SDS011;53160;55.014;73.156;2023-04-24T10:15:00;1.25;;;1.25;;
63379;SDS011;53160;55.014;73.156;2023-04-24T10:17:27;1.75;;;1.75;;
63379;SDS011;53160;55.014;73.156;2023-04-24T10:20:12;1.75;;;1.50;;
63379;SDS011;53160;55.014;73.156;2023-04-24T10:22:41;2.75;;;2.50;;
63379;SDS011;53160;55.014;73.156;2023-04-24T10:25:07;2.50;;;2.00;;
63379;SDS011;53160;55.014;73.156;2023-04-24T10:27:34;2.25;;;1.00;;
63379;SDS011;53160;55.014;73.156;2023-04-24T10:30:00;34.20;;;31.40;;
63379;SDS011;53160;55.014;73.156;2023-04-24T10:32:45;6.25;;;6.25;;
63379;SDS011;53160;55.014;73.156;2023-04-24T10:35:12;10.25;;;10.25;;
63379;SDS011;53160;55.014;73.156;2023-04-24T10:37:41;39.60;;;33.40;;
63379;SDS011;53160;55.014;73.156;2023-04-24T10:40:10;7.50;;;7.25;;
63379;SDS011;53160;55.014;73.156;2023-04-24T10:42:42;3.25;;;2.25;;
63379;SDS011;53160;55.014;73.156;2023-04-24T10:45:18;1.50;;;1.50;;
63379;SDS011;53160;55.014;73.156;2023-04-24T10:48:06;3.25;;;3.25;;
63379;SDS011;53160;55.014;73.156;2023-04-24T10:50:52;1.25;;;1.25;;
63379;SDS011;53160;55.014;73.156;2023-04-24T10:53:19;1.75;;;1.75;;
63379;SDS011;53160;55.014;73.156;2023-04-24T10:55:50;1.75;;;1.75;;
63379;SDS011;53160;55.014;73.156;2023-04-24T10:58:21;4.50;;;4.50;;
63379;SDS011;53160;55.014;73.156;2023-04-24T11:01:06;5.00;;;4.50;;
63379;SDS011;53160;55.014;73.156;2023-04-24T11:06:17;3.75;;;3.75;;
63379;SDS011;53160;55.014;73.156;2023-04-24T11:08:57;3.25;;;3.25;;
63379;SDS011;53160;55.014;73.156;2023-04-24T11:11:46;4.00;;;4.00;;
63379;SDS011;53160;55.014;73.156;2023-04-24T11:20:11;7.00;;;6.00;;
63379;SDS011;53160;55.014;73.156;2023-04-24T11:22:38;7.25;;;7.25;;
63379;SDS011;53160;55.014;73.156;2023-04-24T11:25:05;6.00;;;5.25;;
63379;SDS011;53160;55.014;73.156;2023-04-24T11:27:38;4.00;;;4.00;;
63379;SDS011;53160;55.014;73.156;2023-04-24T11:30:17;20.80;;;18.60;;
63379;SDS011;53160;55.014;73.156;2023-04-24T11:32:43;2.75;;;2.50;;
63379;SDS011;53160;55.014;73.156;2023-04-24T11:35:17;7.00;;;7.00;;
63379;SDS011;53160;55.014;73.156;2023-04-24T11:37:44;2.50;;;2.25;;
63379;SDS011;53160;55.014;73.156;2023-04-24T11:43:14;5.25;;;5.25;;
63379;SDS011;53160;55.014;73.156;2023-04-24T11:45:53;7.50;;;6.25;;
63379;SDS011;53160;55.014;73.156;2023-04-24T11:48:19;6.00;;;3.75;;
63379;SDS011;53160;55.014;73.156;2023-04-24T11:50:46;2.25;;;2.25;;
63379;SDS011;53160;55.014;73.156;2023-04-24T11:53:12;7.00;;;6.25;;
63379;SDS011;53160;55.014;73.156;2023-04-24T11:55:56;9.50;;;9.25;;
63379;SDS011;53160;55.014;73.156;2023-04-24T11:58:22;11.75;;;10.50;;
63379;SDS011;53160;55.014;73.156;2023-04-24T12:01:17;9.00;;;9.00;;
63379;SDS011;53160;55.014;73.156;2023-04-24T12:03:47;10.33;;;10.33;;
63379;SDS011;53160;55.014;73.156;2023-04-24T12:06:31;10.25;;;10.00;;
63379;SDS011;53160;55.014;73.156;2023-04-24T12:08:57;13.40;;;11.00;;
63379;SDS011;53160;55.014;73.156;2023-04-24T12:11:36;11.00;;;10.60;;
63379;SDS011;53160;55.014;73.156;2023-04-24T12:14:12;19.80;;;19.40;;
63379;SDS011;53160;55.014;73.156;2023-04-24T12:16:38;28.20;;;26.00;;
63379;SDS011;53160;55.014;73.156;2023-04-24T12:19:09;26.20;;;25.00;;
63379;SDS011;53160;55.014;73.156;2023-04-24T12:21:35;34.00;;;32.50;;
63379;SDS011;53160;55.014;73.156;2023-04-24T12:24:05;22.80;;;21.20;;
63379;SDS011;53160;55.014;73.156;2023-04-24T12:26:31;16.80;;;16.00;;
63379;SDS011;53160;55.014;73.156;2023-04-24T12:29:22;12.00;;;12.00;;
63379;SDS011;53160;55.014;73.156;2023-04-24T12:31:48;16.00;;;16.00;;
63379;SDS011;53160;55.014;73.156;2023-04-24T12:34:32;11.00;;;10.00;;
63379;SDS011;53160;55.014;73.156;2023-04-24T12:37:09;3.75;;;3.00;;
63379;SDS011;53160;55.014;73.156;2023-04-24T12:40:10;0.50;;;0.50;;
63379;SDS011;53160;55.014;73.156;2023-04-24T12:42:43;2.00;;;1.00;;
63379;SDS011;53160;55.014;73.156;2023-04-24T12:47:54;2.00;;;2.00;;
63379;SDS011;53160;55.014;73.156;2023-04-24T12:53:44;3.00;;;3.00;;
63379;SDS011;53160;55.014;73.156;2023-04-24T12:59:13;2.00;;;2.00;;
63379;SDS011;53160;55.014;73.156;2023-04-24T13:01:49;2.00;;;2.00;;
63379;SDS011;53160;55.014;73.156;2023-04-24T13:04:16;2.00;;;2.00;;
63379;SDS011;53160;55.014;73.156;2023-04-24T13:06:42;1.00;;;1.00;;
63379;SDS011;53160;55.014;73.156;2023-04-24T13:09:08;2.00;;;1.00;;
63379;SDS011;53160;55.014;73.156;2023-04-24T13:11:35;3.00;;;1.00;;
63379;SDS011;53160;55.014;73.156;2023-04-24T13:17:04;3.75;;;3.00;;
63379;SDS011;53160;55.014;73.156;2023-04-24T13:19:35;3.50;;;3.00;;
63379;SDS011;53160;55.014;73.156;2023-04-24T13:22:09;1.75;;;1.00;;
63379;SDS011;53160;55.014;73.156;2023-04-24T13:24:40;2.75;;;2.00;;
63379;SDS011;53160;55.014;73.156;2023-04-24T13:27:17;3.00;;;2.25;;
63379;SDS011;53160;55.014;73.156;2023-04-24T13:35:46;1.00;;;1.00;;
63379;SDS011;53160;55.014;73.156;2023-04-24T13:41:16;3.80;;;3.80;;
63379;SDS011;53160;55.014;73.156;2023-04-24T13:43:41;5.00;;;3.00;;
63379;SDS011;53160;55.014;73.156;2023-04-24T13:46:08;2.75;;;2.25;;
63379;SDS011;53160;55.014;73.156;2023-04-24T13:48:52;1.25;;;1.25;;
63379;SDS011;53160;55.014;73.156;2023-04-24T13:51:19;1.50;;;1.50;;
63379;SDS011;53160;55.014;73.156;2023-04-24T13:54:08;1.75;;;1.75;;
63379;SDS011;53160;55.014;73.156;2023-04-24T13:56:34;2.00;;;2.00;;
63379;SDS011;53160;55.014;73.156;2023-04-24T13:59:19;2.25;;;2.25;;
63379;SDS011;53160;55.014;73.156;2023-04-24T14:01:45;1.50;;;1.50;;
63379;SDS011;53160;55.014;73.156;2023-04-24T14:10:00;2.20;;;2.20;;
63379;SDS011;53160;55.014;73.156;2023-04-24T14:12:26;1.67;;;1.67;;
63379;SDS011;53160;55.014;73.156;2023-04-24T14:14:52;3.25;;;3.00;;
63379;SDS011;53160;55.014;73.156;2023-04-24T14:17:23;5.00;;;4.40;;
63379;SDS011;53160;55.014;73.156;2023-04-24T14:22:39;3.00;;;2.50;;
63379;SDS011;53160;55.014;73.156;2023-04-24T14:25:15;2.80;;;2.80;;
63379;SDS011;53160;55.014;73.156;2023-04-24T14:27:41;3.20;;;3.20;;
63379;SDS011;53160;55.014;73.156;2023-04-24T14:30:07;5.00;;;3.80;;
63379;SDS011;53160;55.014;73.156;2023-04-24T14:32:34;3.60;;;3.00;;
63379;SDS011;53160;55.014;73.156;2023-04-24T14:35:29;1.25;;;1.00;;
63379;SDS011;53160;55.014;73.156;2023-04-24T14:41:18;4.40;;;3.80;;
63379;SDS011;53160;55.014;73.156;2023-04-24T14:46:28;4.80;;;3.80;;
63379;SDS011;53160;55.014;73.156;2023-04-24T14:48:56;6.00;;;5.40;;
63379;SDS011;53160;55.014;73.156;2023-04-24T14:51:40;9.20;;;6.40;;
63379;SDS011;53160;55.014;73.156;2023-04-24T14:54:08;4.80;;;3.00;;
63379;SDS011;53160;55.014;73.156;2023-04-24T14:56:34;2.80;;;2.80;;
63379;SDS011;53160;55.014;73.156;2023-04-24T15:01:49;4.00;;;2.40;;
63379;SDS011;53160;55.014;73.156;2023-04-24T15:04:17;4.60;;;2.80;;
63379;SDS011;53160;55.014;73.156;2023-04-24T15:07:01;8.80;;;7.40;;
63379;SDS011;53160;55.014;73.156;2023-04-24T15:09:27;9.00;;;7.60;;
63379;SDS011;53160;55.014;73.156;2023-04-24T15:11:53;4.20;;;4.00;;
63379;SDS011;53160;55.014;73.156;2023-04-24T15:14:20;6.00;;;5.80;;
63379;SDS011;53160;55.014;73.156;2023-04-24T15:16:46;6.80;;;5.80;;
63379;SDS011;53160;55.014;73.156;2023-04-24T15:19:12;3.00;;;3.00;;
63379;SDS011;53160;55.014;73.156;2023-04-24T15:21:38;2.25;;;2.25;;
63379;SDS011;53160;55.014;73.156;2023-04-24T15:24:24;2.80;;;2.60;;
63379;SDS011;53160;55.014;73.156;2023-04-24T15:29:35;1.00;;;1.00;;
63379;SDS011;53160;55.014;73.156;2023-04-24T15:32:19;0.00;;;0.00;;
63379;SDS011;53160;55.014;73.156;2023-04-24T15:34:45;11.40;;;9.80;;
63379;SDS011;53160;55.014;73.156;2023-04-24T15:37:30;8.20;;;8.00;;
63379;SDS011;53160;55.014;73.156;2023-04-24T15:42:41;2.80;;;2.20;;
63379;SDS011;53160;55.014;73.156;2023-04-24T15:45:13;2.40;;;2.40;;
63379;SDS011;53160;55.014;73.156;2023-04-24T15:47:58;2.80;;;1.80;;
63379;SDS011;53160;55.014;73.156;2023-04-24T15:50:29;5.20;;;3.00;;
63379;SDS011;53160;55.014;73.156;2023-04-24T15:52:55;4.80;;;3.20;;
63379;SDS011;53160;55.014;73.156;2023-04-24T15:55:21;1.40;;;1.40;;
63379;SDS011;53160;55.014;73.156;2023-04-24T15:57:57;7.20;;;6.00;;
63379;SDS011;53160;55.014;73.156;2023-04-24T16:00:41;2.00;;;2.00;;
63379;SDS011;53160;55.014;73.156;2023-04-24T16:03:07;2.40;;;2.40;;
63379;SDS011;53160;55.014;73.156;2023-04-24T16:08:18;0.60;;;0.60;;
63379;SDS011;53160;55.014;73.156;2023-04-24T16:11:03;3.00;;;1.20;;
63379;SDS011;53160;55.014;73.156;2023-04-24T16:13:29;2.00;;;1.60;;
63379;SDS011;53160;55.014;73.156;2023-04-24T16:15:56;1.80;;;1.80;;
63379;SDS011;53160;55.014;73.156;2023-04-24T16:18:40;1.20;;;0.80;;
63379;SDS011;53160;55.014;73.156;2023-04-24T16:21:06;2.00;;;2.00;;
63379;SDS011;53160;55.014;73.156;2023-04-24T16:23:33;3.60;;;3.00;;
63379;SDS011;53160;55.014;73.156;2023-04-24T16:25:59;6.00;;;5.20;;
63379;SDS011;53160;55.014;73.156;2023-04-24T16:28:31;3.80;;;3.20;;
63379;SDS011;53160;55.014;73.156;2023-04-24T16:30:57;6.00;;;5.60;;
63379;SDS011;53160;55.014;73.156;2023-04-24T16:33:23;3.40;;;3.40;;
63379;SDS011;53160;55.014;73.156;2023-04-24T16:35:56;7.80;;;7.80;;
63379;SDS011;53160;55.014;73.156;2023-04-24T16:38:22;5.20;;;5.20;;
63379;SDS011;53160;55.014;73.156;2023-04-24T16:41:11;8.00;;;7.40;;
63379;SDS011;53160;55.014;73.156;2023-04-24T16:44:14;7.40;;;6.00;;
63379;SDS011;53160;55.014;73.156;2023-04-24T16:46:40;6.00;;;4.20;;
63379;SDS011;53160;55.014;73.156;2023-04-24T16:49:24;5.20;;;5.20;;
63379;SDS011;53160;55.014;73.156;2023-04-24T16:52:01;3.80;;;3.80;;
63379;SDS011;53160;55.014;73.156;2023-04-24T16:54:27;2.40;;;2.00;;
63379;SDS011;53160;55.014;73.156;2023-04-24T16:56:59;2.40;;;2.40;;
63379;SDS011;53160;55.014;73.156;2023-04-24T16:59:25;2.40;;;2.00;;
63379;SDS011;53160;55.014;73.156;2023-04-24T17:01:51;4.00;;;4.00;;
63379;SDS011;53160;55.014;73.156;2023-04-24T17:04:17;3.60;;;3.00;;
63379;SDS011;53160;55.014;73.156;2023-04-24T17:10:01;6.60;;;6.60;;